Time;durP1;ratioP1;P1;durP2;ratioP2;P2;SDS_P1;SDS_P2;PMS_P1;PMS_P2;Temp;Humidity;BMP_temperature;BMP_pressure;BME280_temperature;BME280_humidity;BME280_pressure;Samples;Min_cycle;Max_cycle;Signal;HPM_P1;HPM_P2
2022/09/15 00:01:47;;;;;;;6.25;1.40;;;;;;;16.42;89.30;100831.56;5027656;28;20017;-65
2022/09/15 00:04:13;;;;;;;5.10;1.27;;;;;;;16.44;88.90;100830.59;5028919;28;20021;-61
2022/09/15 00:06:38;;;;;;;7.10;1.30;;;;;;;16.39;89.03;100829.06;5027661;28;20143;-62
2022/09/15 00:09:03;;;;;;;4.53;1.45;;;;;;;16.42;89.15;100833.34;5028148;28;20053;-60
2022/09/15 00:11:32;;;;;;;3.10;1.33;;;;;;;16.39;89.48;100834.38;5027613;28;20030;-62
2022/09/15 00:14:00;;;;;;;3.70;1.40;;;;;;;16.42;89.22;100830.69;5027586;28;20464;-62
2022/09/15 00:16:27;;;;;;;3.83;1.20;;;;;;;16.41;89.42;100832.47;5027221;28;20029;-63
2022/09/15 00:18:53;;;;;;;3.88;1.50;;;;;;;16.37;89.42;100838.94;5027288;28;20026;-64
2022/09/15 00:21:21;;;;;;;5.68;1.20;;;;;;;16.47;89.71;100820.66;5028901;28;20502;-60
2022/09/15 00:23:47;;;;;;;8.30;1.40;;;;;;;16.59;89.06;100829.69;5029170;28;20024;-60
2022/09/15 00:26:15;;;;;;;6.90;1.30;;;;;;;16.68;88.75;100833.59;5028089;28;20292;-61
2022/09/15 00:28:41;;;;;;;3.80;1.40;;;;;;;16.70;88.83;100825.53;5028591;28;20040;-59
2022/09/15 00:31:11;;;;;;;7.57;1.63;;;;;;;16.77;88.66;100826.88;5028185;28;20288;-62
2022/09/15 00:33:37;;;;;;;4.03;1.50;;;;;;;16.82;89.04;100826.59;5028747;28;20041;-62
2022/09/15 00:36:04;;;;;;;5.75;1.23;;;;;;;16.84;89.00;100819.38;5028336;28;20005;-61
2022/09/15 00:38:31;;;;;;;4.68;1.10;;;;;;;16.95;88.49;100822.25;5027782;28;20092;-61
2022/09/15 00:40:59;;;;;;;4.20;1.30;;;;;;;17.00;87.83;100813.94;5027456;28;20527;-63
2022/09/15 00:43:43;;;;;;;3.67;1.33;;;;;;;17.07;87.45;100819.78;5026503;28;20044;-63
2022/09/15 00:46:09;;;;;;;3.15;1.10;;;;;;;17.18;87.03;100819.97;5028627;28;20025;-61
2022/09/15 00:48:37;;;;;;;5.88;1.30;;;;;;;17.18;86.38;100830.63;5027746;28;20518;-56
2022/09/15 00:51:04;;;;;;;3.35;1.23;;;;;;;17.27;86.20;100834.50;5027231;28;20033;-58
2022/09/15 00:53:32;;;;;;;4.28;1.33;;;;;;;17.33;85.50;100828.81;5025868;28;20025;-59
2022/09/15 00:55:58;;;;;;;6.03;1.42;;;;;;;17.36;85.21;100836.59;5027002;28;20041;-57
2022/09/15 00:58:33;;;;;;;3.08;1.52;;;;;;;17.43;84.61;100835.25;5026635;28;20044;-62
2022/09/15 01:01:00;;;;;;;4.85;1.58;;;;;;;17.50;84.16;100838.41;5027247;28;20510;-60
2022/09/15 01:03:29;;;;;;;4.60;1.50;;;;;;;17.53;83.55;100840.88;5027357;28;20052;-62
2022/09/15 01:05:57;;;;;;;6.15;1.80;;;;;;;17.57;83.32;100838.88;5026808;28;20123;-61
2022/09/15 01:08:45;;;;;;;5.65;2.10;;;;;;;17.63;82.87;100840.28;5028206;28;20040;-61
2022/09/15 01:11:10;;;;;;;6.30;2.20;;;;;;;17.65;82.44;100839.25;5206493;23;20061;-62
2022/09/15 01:13:36;;;;;;;4.50;2.03;;;;;;;17.66;81.88;100830.28;5027791;28;20468;-63
2022/09/15 01:16:26;;;;;;;8.45;2.55;;;;;;;17.66;81.86;100835.63;5027379;28;20034;-61
2022/09/15 01:19:20;;;;;;;3.97;2.20;;;;;;;17.61;81.79;100845.69;5023416;28;20100;-62
2022/09/15 01:21:49;;;;;;;6.57;2.90;;;;;;;17.55;81.91;100838.97;5009316;28;20507;-62
2022/09/15 01:24:33;;;;;;;4.40;2.63;;;;;;;17.52;82.02;100838.31;5007809;28;20030;-61
2022/09/15 01:27:07;;;;;;;4.97;2.78;;;;;;;17.48;82.02;100842.09;5008329;28;20030;-62
2022/09/15 01:30:07;;;;;;;6.80;3.35;;;;;;;17.41;82.31;100837.19;5012344;28;20404;-58
2022/09/15 01:35:36;;;;;;;4.35;2.95;;;;;;;17.38;82.58;100834.72;5031119;28;20049;-60
2022/09/15 01:38:05;;;;;;;2.95;2.45;;;;;;;17.41;82.58;100837.19;5029807;28;20105;-64
2022/09/15 01:40:40;;;;;;;3.47;2.80;;;;;;;17.48;82.48;100842.97;5029334;28;20440;-63
2022/09/15 01:43:08;;;;;;;10.43;3.13;;;;;;;17.57;82.27;100841.53;5030605;28;20410;-61
2022/09/15 01:45:34;;;;;;;5.38;3.05;;;;;;;17.55;82.54;100843.44;5029630;28;20112;-61
2022/09/15 01:48:01;;;;;;;10.43;3.80;;;;;;;17.52;83.09;100847.16;5030938;28;20028;-62
2022/09/15 01:50:31;;;;;;;5.15;2.90;;;;;;;17.52;83.24;100849.81;5031051;28;20029;-63
2022/09/15 01:53:00;;;;;;;6.68;2.70;;;;;;;17.54;83.61;100847.03;5029288;28;20456;-63
2022/09/15 01:55:36;;;;;;;5.15;3.47;;;;;;;17.54;83.77;100849.72;5029472;28;20018;-62
2022/09/15 01:58:02;;;;;;;7.78;3.88;;;;;;;17.35;85.50;100848.22;5029325;28;20025;-63
2022/09/15 02:00:29;;;;;;;5.93;3.25;;;;;;;17.38;85.80;100849.84;5012763;28;20021;-65
2022/09/15 02:02:58;;;;;;;5.03;3.20;;;;;;;17.41;85.33;100847.84;5030374;28;20033;-63
2022/09/15 02:05:29;;;;;;;;;;;;;;;17.54;84.98;100847.91;5018290;28;20468;-60
2022/09/15 02:08:08;;;;;;;6.97;3.60;;;;;;;17.50;85.18;100845.53;5024721;28;19956;-61
2022/09/15 02:10:45;;;;;;;;;;;;;;;17.56;85.21;100842.50;5024145;28;20065;-59
2022/09/15 02:13:16;;;;;;;6.88;2.95;;;;;;;17.49;85.34;100844.66;5029562;28;20294;-62
2022/09/15 02:15:50;;;;;;;6.35;3.20;;;;;;;17.42;85.82;100843.34;5028623;28;20049;-60
2022/09/15 02:18:33;;;;;;;7.25;3.10;;;;;;;17.40;86.24;100842.63;5029242;28;20053;-61
2022/09/15 02:21:08;;;;;;;5.78;3.30;;;;;;;17.34;86.69;100846.50;5030441;28;20480;-61
2022/09/15 02:23:42;;;;;;;8.27;3.33;;;;;;;17.29;87.50;100844.16;5027802;28;20422;-62
2022/09/15 02:26:12;;;;;;;7.55;3.50;;;;;;;17.29;87.46;100837.94;5029391;28;20041;-63
2022/09/15 02:28:39;;;;;;;3.72;2.72;;;;;;;17.30;87.44;100844.97;5029455;28;20053;-62
2022/09/15 02:31:07;;;;;;;9.93;2.88;;;;;;;17.28;87.52;100846.91;5019984;28;20109;-61
2022/09/15 02:33:41;;;;;;;7.05;2.75;;;;;;;17.27;88.11;100845.16;5008541;28;20060;-61
2022/09/15 02:36:07;;;;;;;8.77;2.58;;;;;;;17.24;88.45;100845.34;5009523;28;20112;-64
2022/09/15 02:38:37;;;;;;;7.85;3.00;;;;;;;17.23;88.44;100846.31;5008052;28;20436;-62
2022/09/15 02:41:04;;;;;;;4.32;2.72;;;;;;;17.16;88.94;100853.84;5038565;28;20037;-62
2022/09/15 02:43:30;;;;;;;7.05;2.83;;;;;;;17.12;89.13;100852.28;5030347;28;20025;-61
2022/09/15 02:45:56;;;;;;;8.40;3.00;;;;;;;17.04;89.34;100848.28;5027914;28;20033;-62
2022/09/15 02:48:21;;;;;;;7.55;2.75;;;;;;;16.98;89.96;100851.31;5028014;28;20368;-58
2022/09/15 02:50:46;;;;;;;8.93;3.13;;;;;;;16.97;90.12;100854.06;5028013;28;20021;-61
2022/09/15 02:53:12;;;;;;;3.38;2.53;;;;;;;16.98;90.11;100850.47;5028826;28;20033;-64
2022/09/15 02:55:37;;;;;;;6.15;2.78;;;;;;;17.03;90.29;100851.03;5028642;28;20068;-57
2022/09/15 02:58:03;;;;;;;5.18;2.00;;;;;;;17.08;89.81;100856.97;5029464;28;20018;-62
2022/09/15 03:00:29;;;;;;;3.70;2.55;;;;;;;17.12;90.31;100857.63;5030341;28;20063;-62
2022/09/15 03:02:55;;;;;;;8.70;2.50;;;;;;;17.15;90.01;100849.44;5028881;28;20044;-62
2022/09/15 03:05:23;;;;;;;8.18;2.40;;;;;;;17.15;90.29;100850.31;5029297;28;20029;-64
2022/09/15 03:07:49;;;;;;;4.53;2.22;;;;;;;17.15;90.17;100858.31;5028834;28;20469;-60
2022/09/15 03:10:15;;;;;;;6.03;2.92;;;;;;;17.12;90.30;100850.50;5028377;28;20108;-63
2022/09/15 03:12:47;;;;;;;3.70;2.28;;;;;;;17.12;90.27;100852.28;5025504;28;20052;-58
2022/09/15 03:15:15;;;;;;;5.95;2.60;;;;;;;17.08;90.79;100854.31;5028568;28;20738;-62
2022/09/15 03:17:41;;;;;;;6.93;2.50;;;;;;;17.05;91.22;100857.13;5028872;28;20462;-55
2022/09/15 03:20:09;;;;;;;8.82;2.70;;;;;;;17.01;91.07;100860.94;5029864;28;20464;-61
2022/09/15 03:22:35;;;;;;;4.82;2.55;;;;;;;17.00;91.35;100859.19;5029661;28;20060;-62
2022/09/15 03:25:00;;;;;;;4.25;2.70;;;;;;;16.99;91.35;100862.81;5027945;28;20705;-56
2022/09/15 03:27:26;;;;;;;5.55;2.83;;;;;;;17.02;91.58;100862.63;5028715;28;20112;-63
2022/09/15 03:29:51;;;;;;;4.68;2.03;;;;;;;17.01;91.54;100863.59;5029299;28;20029;-64
2022/09/15 03:32:17;;;;;;;8.23;2.80;;;;;;;17.02;91.12;100868.81;5029768;28;20112;-63
2022/09/15 03:34:42;;;;;;;5.32;2.58;;;;;;;16.97;91.46;100872.69;5028074;28;20051;-62
2022/09/15 03:37:07;;;;;;;8.63;2.53;;;;;;;16.98;91.21;100869.94;5027585;28;20091;-62
2022/09/15 03:39:33;;;;;;;4.60;2.20;;;;;;;16.93;90.63;100872.03;5027820;28;20414;-61
2022/09/15 03:41:58;;;;;;;3.92;2.10;;;;;;;16.87;90.76;100870.59;5028355;28;20021;-61
2022/09/15 03:44:24;;;;;;;7.47;2.30;;;;;;;16.90;90.34;100864.22;5029187;28;20041;-61
2022/09/15 03:46:49;;;;;;;10.48;2.30;;;;;;;16.86;89.74;100860.88;5028703;28;20431;-62
2022/09/15 03:49:15;;;;;;;9.27;2.33;;;;;;;16.76;90.29;100870.38;5028966;28;20060;-61
2022/09/15 03:51:41;;;;;;;5.32;2.20;;;;;;;16.72;90.07;100866.19;5028303;28;20394;-63
2022/09/15 03:54:07;;;;;;;6.00;2.33;;;;;;;16.66;89.91;100865.63;5028310;28;20053;-61
2022/09/15 03:56:33;;;;;;;6.90;2.40;;;;;;;16.60;90.51;100878.41;5028901;28;20419;-62
2022/09/15 03:59:02;;;;;;;6.32;2.25;;;;;;;16.52;90.99;100877.06;5026855;28;20109;-63
2022/09/15 04:01:28;;;;;;;6.13;2.10;;;;;;;16.42;91.46;100868.78;5028086;28;20036;-62
2022/09/15 04:03:54;;;;;;;8.18;2.90;;;;;;;16.40;91.73;100869.78;5027847;28;20102;-61
2022/09/15 04:06:21;;;;;;;8.68;2.40;;;;;;;16.39;91.94;100868.97;5028628;28;20064;-63
2022/09/15 04:08:47;;;;;;;4.53;2.60;;;;;;;16.41;92.04;100867.03;5029068;28;20017;-60
2022/09/15 04:11:13;;;;;;;9.07;2.08;;;;;;;16.43;91.98;100872.28;5027882;28;20275;-62
2022/09/15 04:13:40;;;;;;;4.88;2.00;;;;;;;16.48;92.10;100880.00;5028412;28;20041;-62
2022/09/15 04:16:08;;;;;;;4.20;1.98;;;;;;;16.54;91.70;100875.19;5028812;28;20092;-62
2022/09/15 04:18:35;;;;;;;5.15;1.88;;;;;;;16.60;91.42;100878.41;5010733;28;20028;-63
2022/09/15 04:21:05;;;;;;;7.72;2.28;;;;;;;16.54;91.65;100877.84;5027617;28;20028;-60
2022/09/15 04:23:32;;;;;;;7.00;2.17;;;;;;;16.62;91.33;100887.16;5027532;28;20029;-61
2022/09/15 04:26:01;;;;;;;5.15;2.17;;;;;;;16.73;90.74;100878.53;5028040;28;20075;-63
2022/09/15 04:28:28;;;;;;;6.75;2.00;;;;;;;16.77;90.40;100880.09;5029217;28;20057;-61
2022/09/15 04:31:04;;;;;;;4.95;1.92;;;;;;;16.88;88.65;100888.28;5028560;28;20021;-63
2022/09/15 04:33:30;;;;;;;4.40;1.67;;;;;;;16.93;85.89;100890.66;5028930;28;20033;-62
2022/09/15 04:36:00;;;;;;;4.07;1.50;;;;;;;17.03;84.24;100890.94;5028532;28;20029;-62
2022/09/15 04:38:26;;;;;;;4.65;1.30;;;;;;;17.10;82.68;100881.66;5026949;28;20028;-63
2022/09/15 04:40:51;;;;;;;4.57;1.60;;;;;;;17.25;81.61;100885.19;5028743;28;20033;-59
2022/09/15 04:43:17;;;;;;;2.28;1.20;;;;;;;17.33;80.72;100873.25;5029080;28;20061;-61
2022/09/15 04:45:42;;;;;;;6.88;1.67;;;;;;;17.40;80.26;100871.91;5028800;28;20112;-62
2022/09/15 04:48:07;;;;;;;2.92;0.95;;;;;;;17.38;80.58;100869.34;5029447;28;20136;-56
2022/09/15 04:50:33;;;;;;;6.57;1.63;;;;;;;17.29;80.32;100875.22;5028906;28;20022;-64
2022/09/15 04:52:58;;;;;;;3.63;1.13;;;;;;;17.29;80.97;100877.91;5026519;28;20026;-62
2022/09/15 04:55:25;;;;;;;4.18;1.17;;;;;;;17.32;80.88;100877.72;5027851;28;20116;-61
2022/09/15 04:57:50;;;;;;;5.20;1.40;;;;;;;17.39;80.03;100871.03;5029472;28;20130;-62
2022/09/15 05:00:16;;;;;;;4.78;1.27;;;;;;;17.35;79.85;100871.31;5027047;28;20695;-62
2022/09/15 05:02:41;;;;;;;5.13;1.42;;;;;;;17.40;79.94;100877.22;5030565;28;20024;-62
2022/09/15 05:05:07;;;;;;;2.45;1.27;;;;;;;17.30;79.98;100868.94;5031888;28;20029;-64
2022/09/15 05:07:32;;;;;;;3.88;1.70;;;;;;;17.33;79.91;100871.41;5030969;28;20026;-61
2022/09/15 05:09:57;;;;;;;4.68;1.05;;;;;;;17.33;79.91;100867.91;5031347;28;20087;-62
2022/09/15 05:12:23;;;;;;;1.77;0.80;;;;;;;17.29;79.53;100870.78;5026590;28;20180;-62
2022/09/15 05:14:48;;;;;;;2.97;1.00;;;;;;;17.28;79.52;100870.88;5032458;28;20040;-59
2022/09/15 05:17:13;;;;;;;5.50;1.27;;;;;;;17.26;79.71;100878.09;5030732;28;20115;-64
2022/09/15 05:19:39;;;;;;;4.68;1.17;;;;;;;17.17;79.66;100867.06;5031413;28;20030;-63
2022/09/15 05:22:04;;;;;;;3.67;1.00;;;;;;;17.18;80.04;100881.22;5032259;28;20108;-60
2022/09/15 05:24:30;;;;;;;2.50;1.00;;;;;;;17.12;79.93;100874.47;5030491;28;20390;-62
2022/09/15 05:26:55;;;;;;;4.80;1.33;;;;;;;17.02;80.32;100875.94;5031377;28;20452;-62
2022/09/15 05:29:20;;;;;;;4.43;1.00;;;;;;;16.90;81.40;100882.88;5031384;28;20123;-61
2022/09/15 05:31:46;;;;;;;2.75;1.30;;;;;;;16.95;81.05;100878.13;5032125;28;20037;-63
2022/09/15 05:34:11;;;;;;;8.52;1.30;;;;;;;16.91;80.98;100877.44;5029440;28;20029;-64
2022/09/15 05:36:36;;;;;;;3.85;1.33;;;;;;;16.83;81.43;100874.41;5030533;28;20028;-62
2022/09/15 05:39:02;;;;;;;5.07;1.27;;;;;;;16.81;82.31;100870.97;5030387;28;20033;-62
2022/09/15 05:41:28;;;;;;;2.67;1.25;;;;;;;16.78;82.51;100872.00;5030908;28;20045;-63
2022/09/15 05:43:55;;;;;;;5.25;1.15;;;;;;;16.77;82.64;100864.13;5031584;28;20422;-63
2022/09/15 05:46:21;;;;;;;4.47;1.20;;;;;;;16.81;82.60;100870.97;5030943;28;20037;-63
2022/09/15 05:48:46;;;;;;;8.88;1.17;;;;;;;16.91;82.49;100866.81;5030977;28;20025;-62
2022/09/15 05:51:13;;;;;;;3.70;1.30;;;;;;;16.96;82.58;100870.97;5030119;28;20021;-62
2022/09/15 05:53:38;;;;;;;5.07;1.15;;;;;;;17.07;81.59;100873.91;5029286;28;20730;-62
2022/09/15 05:56:10;;;;;;;2.22;1.48;;;;;;;17.21;81.64;100872.16;5029596;28;20038;-60
2022/09/15 05:58:38;;;;;;;4.45;1.27;;;;;;;17.32;80.31;100884.81;5009449;28;20061;-61
2022/09/15 06:01:06;;;;;;;2.88;1.00;;;;;;;17.39;80.29;100872.84;5015574;28;20447;-64
2022/09/15 06:03:32;;;;;;;3.03;1.10;;;;;;;17.39;80.15;100880.81;5018411;28;20083;-60
2022/09/15 06:05:58;;;;;;;4.07;1.30;;;;;;;17.52;80.47;100878.28;5022373;28;20022;-62
2022/09/15 06:08:24;;;;;;;5.85;1.48;;;;;;;17.61;80.47;100891.00;5029353;28;20115;-62
2022/09/15 06:10:49;;;;;;;2.97;1.20;;;;;;;17.60;81.07;100883.97;5030324;28;20484;-65
2022/09/15 06:13:14;;;;;;;2.97;1.50;;;;;;;17.64;81.45;100895.28;5029656;28;20594;-63
2022/09/15 06:15:39;;;;;;;5.95;1.20;;;;;;;17.55;81.37;100896.72;5030202;28;20026;-61
2022/09/15 06:18:05;;;;;;;3.53;1.25;;;;;;;17.66;81.01;100904.91;5024156;28;20033;-61
2022/09/15 06:20:30;;;;;;;8.48;1.83;;;;;;;17.70;80.21;100904.69;5019351;28;20033;-62
2022/09/15 06:22:56;;;;;;;6.70;1.75;;;;;;;17.61;80.57;100906.97;5018731;28;20026;-58
2022/09/15 06:25:21;;;;;;;2.78;1.02;;;;;;;17.73;79.90;100909.84;5002579;28;20815;-62
2022/09/15 06:27:48;;;;;;;3.85;1.27;;;;;;;17.81;79.19;100912.84;5017709;28;20368;-62
2022/09/15 06:30:13;;;;;;;1.90;1.08;;;;;;;17.86;78.86;100912.56;5018569;28;20539;-63
2022/09/15 06:32:39;;;;;;;3.60;1.20;;;;;;;17.85;78.23;100917.03;5019888;28;20113;-62
2022/09/15 06:35:07;;;;;;;4.35;1.17;;;;;;;17.78;79.09;100918.38;5018024;28;20083;-61
2022/09/15 06:37:33;;;;;;;5.72;1.20;;;;;;;17.76;79.50;100920.31;5019014;28;20261;-64
2022/09/15 06:39:59;;;;;;;6.90;1.45;;;;;;;17.83;79.63;100920.75;5021291;28;20428;-63
2022/09/15 06:42:24;;;;;;;7.55;1.50;;;;;;;17.85;79.84;100919.69;5025629;28;20033;-65
2022/09/15 06:44:50;;;;;;;4.22;1.23;;;;;;;18.00;79.47;100920.53;5027906;28;20075;-61
2022/09/15 06:47:15;;;;;;;8.90;1.60;;;;;;;18.03;79.43;100924.84;5028081;28;20029;-62
2022/09/15 06:49:41;;;;;;;4.32;1.08;;;;;;;18.08;79.84;100922.72;5008845;28;20026;-62
2022/09/15 06:52:06;;;;;;;6.45;2.22;;;;;;;18.06;80.04;100927.28;5008531;28;20025;-60
2022/09/15 06:54:32;;;;;;;5.47;1.30;;;;;;;18.18;79.24;100929.19;5008136;28;20164;-66
2022/09/15 06:56:57;;;;;;;5.43;1.33;;;;;;;18.35;79.05;100927.25;5009297;28;20030;-62
2022/09/15 06:59:23;;;;;;;4.97;1.50;;;;;;;18.67;77.15;100932.22;5019492;28;20239;-58
2022/09/15 07:01:51;;;;;;;6.28;1.50;;;;;;;18.68;76.00;100944.63;5029197;28;20025;-61
2022/09/15 07:04:17;;;;;;;4.20;1.60;;;;;;;18.79;76.19;100940.41;5028578;28;20032;-62
2022/09/15 07:06:42;;;;;;;5.72;1.20;;;;;;;18.79;76.13;100945.72;5021020;28;20034;-63
2022/09/15 07:09:09;;;;;;;5.55;1.73;;;;;;;18.99;74.87;100951.53;5022427;28;20590;-63
2022/09/15 07:11:35;;;;;;;4.80;1.50;;;;;;;18.76;74.69;100951.28;5023131;28;20053;-62
2022/09/15 07:14:00;;;;;;;9.18;1.73;;;;;;;18.81;74.56;100959.81;5016312;28;20444;-62
2022/09/15 07:16:26;;;;;;;13.25;2.00;;;;;;;18.57;75.11;100960.50;5021679;28;20527;-64
2022/09/15 07:18:53;;;;;;;8.07;1.48;;;;;;;18.86;74.84;100957.69;5019095;28;20026;-61
2022/09/15 07:21:19;;;;;;;8.73;1.55;;;;;;;18.77;75.33;100963.66;5022007;28;20109;-64
2022/09/15 07:23:45;;;;;;;6.65;1.55;;;;;;;18.78;74.87;100966.22;5028295;28;20536;-61
2022/09/15 07:26:13;;;;;;;9.77;1.40;;;;;;;18.88;75.20;100970.94;5027361;28;20018;-65
2022/09/15 07:28:41;;;;;;;10.65;1.75;;;;;;;19.08;74.55;100966.13;5029185;28;20542;-62
2022/09/15 07:31:07;;;;;;;6.38;1.40;;;;;;;19.09;74.80;100973.16;5029268;28;20117;-62
2022/09/15 07:33:33;;;;;;;10.45;1.65;;;;;;;19.10;74.98;100978.38;5027174;28;20071;-63
2022/09/15 07:36:01;;;;;;;6.28;1.60;;;;;;;19.24;74.11;100976.59;5029386;28;20029;-59
2022/09/15 07:38:26;;;;;;;7.35;1.77;;;;;;;19.26;74.46;100975.53;5027910;28;20108;-60
2022/09/15 07:40:52;;;;;;;10.65;1.40;;;;;;;19.30;75.18;100976.19;5029289;28;20101;-59
2022/09/15 07:43:17;;;;;;;3.80;1.40;;;;;;;19.41;74.27;100970.06;5028595;28;20112;-60
2022/09/15 07:45:43;;;;;;;5.68;1.30;;;;;;;19.52;73.65;100969.31;5027093;28;20057;-60
2022/09/15 07:48:08;;;;;;;6.15;1.60;;;;;;;19.67;72.65;100970.94;5028252;28;20539;-65
2022/09/15 07:50:34;;;;;;;9.07;2.20;;;;;;;19.79;72.57;100974.56;5026550;28;20022;-63
2022/09/15 07:52:59;;;;;;;8.95;1.75;;;;;;;19.87;72.00;100976.66;5026728;28;20041;-61
2022/09/15 07:55:26;;;;;;;8.45;1.48;;;;;;;20.12;71.38;100982.97;5027621;28;20140;-68
2022/09/15 07:57:58;;;;;;;8.63;1.40;;;;;;;20.24;70.65;100981.22;5027851;28;20132;-63
2022/09/15 08:00:24;;;;;;;9.90;1.95;;;;;;;20.44;70.03;100982.41;5027024;28;20118;-64
2022/09/15 08:02:49;;;;;;;6.68;1.38;;;;;;;20.45;69.98;100988.63;5027563;28;20112;-66
2022/09/15 08:05:15;;;;;;;6.20;1.42;;;;;;;20.60;69.51;100985.78;5027375;28;20034;-61
2022/09/15 08:07:40;;;;;;;8.25;1.83;;;;;;;20.78;68.72;100994.25;5026636;28;20037;-64
2022/09/15 08:10:06;;;;;;;8.57;1.60;;;;;;;20.89;68.71;100996.13;5027934;28;20464;-66
2022/09/15 08:12:31;;;;;;;49.45;4.25;;;;;;;20.89;67.79;101005.00;5026633;28;20059;-61
2022/09/15 08:14:56;;;;;;;10.10;1.38;;;;;;;20.84;67.95;101005.34;5028430;28;20103;-60
2022/09/15 08:17:22;;;;;;;5.30;1.27;;;;;;;20.81;66.82;101015.44;5027159;28;20056;-62
2022/09/15 08:19:47;;;;;;;5.00;1.17;;;;;;;20.62;66.94;101011.47;5027228;28;20068;-61
2022/09/15 08:22:12;;;;;;;6.85;1.25;;;;;;;20.49;66.02;101018.69;5027022;28;20100;-62
2022/09/15 08:24:38;;;;;;;5.78;1.30;;;;;;;20.36;68.30;101024.94;5025503;28;20029;-63
2022/09/15 08:27:03;;;;;;;8.68;1.52;;;;;;;19.50;70.59;101041.56;5024954;28;20026;-65
2022/09/15 08:29:29;;;;;;;7.75;1.33;;;;;;;19.06;71.42;101046.28;5024839;28;20438;-63
2022/09/15 08:31:54;;;;;;;4.70;1.27;;;;;;;18.94;72.16;101056.81;5026445;28;20113;-64
2022/09/15 08:34:20;;;;;;;7.95;1.30;;;;;;;19.10;71.89;101061.19;5026469;28;20029;-64
2022/09/15 08:36:45;;;;;;;4.75;1.35;;;;;;;19.10;71.80;101061.19;5029283;28;20025;-66
2022/09/15 08:39:11;;;;;;;7.25;1.55;;;;;;;19.36;71.16;101066.59;5030404;28;20168;-64
2022/09/15 08:41:40;;;;;;;5.65;1.40;;;;;;;19.23;71.44;101074.56;5029809;28;20029;-64
2022/09/15 08:44:23;;;;;;;9.43;1.25;;;;;;;19.02;71.75;101074.16;5018161;28;20025;-65
2022/09/15 08:46:49;;;;;;;6.45;1.08;;;;;;;19.08;72.46;101073.75;5031868;28;20037;-62
2022/09/15 08:49:27;;;;;;;8.93;1.27;;;;;;;19.06;71.84;101081.84;5031471;28;20440;-60
2022/09/15 08:51:55;;;;;;;5.18;1.08;;;;;;;19.30;71.06;101081.19;5028860;28;20299;-61
2022/09/15 08:54:27;;;;;;;6.88;1.38;;;;;;;19.59;70.14;101088.19;5029342;28;20120;-61
2022/09/15 08:56:54;;;;;;;5.00;1.25;;;;;;;19.66;68.04;101073.44;5029497;28;20535;-60
2022/09/15 08:59:19;;;;;;;9.50;1.30;;;;;;;19.45;69.66;101076.63;5027374;28;20029;-61
2022/09/15 09:01:56;;;;;;;2.35;0.80;;;;;;;20.02;65.42;101072.84;5020738;28;20026;-59
2022/09/15 09:04:26;;;;;;;8.05;1.70;;;;;;;20.18;64.69;101076.16;5022747;28;20075;-61
2022/09/15 09:07:24;;;;;;;5.78;1.08;;;;;;;20.43;63.90;101071.69;5030876;28;20025;-60
2022/09/15 09:10:05;;;;;;;7.35;1.33;;;;;;;20.10;63.82;101073.16;5020355;28;20085;-60
2022/09/15 09:12:44;;;;;;;6.35;1.05;;;;;;;20.61;60.95;101073.13;5019591;28;20045;-60
2022/09/15 09:15:30;;;;;;;2.38;0.88;;;;;;;20.76;60.77;101063.13;5019306;28;20117;-59
2022/09/15 09:18:06;;;;;;;6.68;1.25;;;;;;;20.88;60.81;101064.91;5027886;28;20034;-59
2022/09/15 09:20:40;;;;;;;5.63;1.40;;;;;;;20.93;60.52;101073.50;5016895;28;20456;-56
2022/09/15 09:23:10;;;;;;;5.50;1.13;;;;;;;20.55;61.96;101069.09;5018214;28;21197;-59
2022/09/15 09:25:35;;;;;;;4.47;1.00;;;;;;;20.94;60.64;101072.50;5025283;28;20092;-59
2022/09/15 09:28:01;;;;;;;8.18;1.05;;;;;;;21.18;57.99;101063.59;5019421;28;20491;-59
2022/09/15 09:30:28;;;;;;;5.00;1.05;;;;;;;21.23;58.40;101070.44;5026973;28;20499;-59
2022/09/15 09:33:27;;;;;;;3.17;0.85;;;;;;;21.46;57.80;101063.31;5027202;28;20018;-61
2022/09/15 09:35:52;;;;;;;4.00;0.90;;;;;;;21.63;57.64;101055.78;5029750;28;20075;-61
2022/09/15 09:38:20;;;;;;;1.98;1.00;;;;;;;21.74;57.96;101060.31;5027450;28;20088;-60
2022/09/15 09:40:46;;;;;;;3.85;1.23;;;;;;;21.83;56.04;101052.41;5015406;28;20024;-58
2022/09/15 09:43:12;;;;;;;6.88;1.30;;;;;;;22.12;56.43;101052.94;5012659;28;20100;-60
2022/09/15 09:45:37;;;;;;;6.50;1.27;;;;;;;22.06;57.08;101051.56;5019489;28;20061;-64
2022/09/15 09:48:14;;;;;;;6.93;1.35;;;;;;;22.01;57.84;101051.97;5011460;28;20026;-60
2022/09/15 09:50:43;;;;;;;4.85;0.90;;;;;;;22.17;54.88;101048.91;5014795;28;20045;-61
2022/09/15 09:53:24;;;;;;;;;;;;;;;22.18;53.38;101050.59;5016423;28;20064;-60
2022/09/15 09:55:49;;;;;;;6.38;1.60;;;;;;;22.49;53.12;101041.91;5018853;28;19913;-60
2022/09/15 09:58:18;;;;;;;5.32;1.25;;;;;;;22.28;51.83;101055.22;5017178;28;20029;-59
2022/09/15 10:00:45;;;;;;;4.70;1.17;;;;;;;22.42;50.25;101052.28;5013873;28;20476;-58
2022/09/15 10:03:23;;;;;;;4.30;0.77;;;;;;;22.60;48.73;101054.47;5016338;28;20025;-59
2022/09/15 10:06:03;;;;;;;4.23;1.30;;;;;;;22.65;48.58;101056.78;5014700;28;20108;-61
2022/09/15 10:08:28;;;;;;;4.70;1.13;;;;;;;22.54;46.95;101055.78;5016224;28;20775;-61
2022/09/15 10:10:59;;;;;;;5.72;1.30;;;;;;;22.25;46.41;101052.78;5025291;28;20097;-62
2022/09/15 10:13:25;;;;;;;6.78;1.10;;;;;;;22.35;47.55;101048.38;5011618;28;20108;-60
2022/09/15 10:15:56;;;;;;;3.42;1.10;;;;;;;22.14;47.96;101051.81;5026804;28;20117;-60
2022/09/15 10:18:27;;;;;;;6.60;1.00;;;;;;;22.50;46.48;101046.28;5014795;28;20025;-61
2022/09/15 10:20:53;;;;;;;6.55;1.20;;;;;;;22.57;46.10;101052.88;5018042;28;20036;-60
2022/09/15 10:23:21;;;;;;;6.65;1.15;;;;;;;22.51;46.14;101045.28;5021325;28;20041;-59
2022/09/15 10:25:46;;;;;;;5.63;1.05;;;;;;;22.40;44.97;101050.69;5030770;28;20029;-60
2022/09/15 10:28:14;;;;;;;6.28;1.05;;;;;;;22.57;44.49;101041.25;5021105;28;20108;-61
2022/09/15 10:30:56;;;;;;;5.63;1.10;;;;;;;22.65;43.60;101054.94;5020786;28;20099;-61
2022/09/15 10:33:39;;;;;;;6.07;1.27;;;;;;;22.47;44.23;101047.41;5018296;28;20060;-60
2022/09/15 10:36:21;;;;;;;6.95;1.23;;;;;;;22.59;44.41;101042.03;5012070;28;20021;-60
2022/09/15 10:39:07;;;;;;;8.90;1.38;;;;;;;22.52;42.57;101048.84;5019504;28;20116;-62
2022/09/15 10:41:35;;;;;;;4.35;1.10;;;;;;;22.42;44.46;101038.84;5027246;28;20519;-60
2022/09/15 10:44:08;;;;;;;4.07;1.25;;;;;;;22.58;43.41;101046.53;5025192;28;20029;-59
2022/09/15 10:46:43;;;;;;;4.15;0.80;;;;;;;22.52;44.78;101035.41;5026161;28;20029;-59
2022/09/15 10:49:31;;;;;;;2.83;1.05;;;;;;;22.42;42.06;101038.84;5025428;28;20045;-59
2022/09/15 10:52:38;;;;;;;5.65;1.15;;;;;;;22.34;41.68;101035.94;5040183;28;20152;-60
2022/09/15 10:55:49;;;;;;;2.58;0.90;;;;;;;22.30;43.52;101027.28;5015354;28;20804;-60
2022/09/15 10:58:39;;;;;;;6.78;1.00;;;;;;;22.11;43.74;101049.38;5006516;28;20052;-60
2022/09/15 11:01:23;;;;;;;5.68;0.93;;;;;;;21.70;43.55;101051.66;5025331;28;20569;-60
2022/09/15 11:03:57;;;;;;;3.20;0.95;;;;;;;21.45;44.82;101059.78;5025756;28;20027;-66
2022/09/15 11:06:28;;;;;;;5.85;1.15;;;;;;;21.69;45.15;101052.63;5025459;28;20017;-65
2022/09/15 11:09:03;;;;;;;4.68;0.95;;;;;;;21.89;45.60;101069.88;5022597;28;20040;-65
2022/09/15 11:12:06;;;;;;;5.32;1.25;;;;;;;22.45;45.80;101068.13;5019565;28;20056;-65
2022/09/15 11:14:52;;;;;;;2.65;0.88;;;;;;;22.49;44.00;101073.25;5019323;28;20061;-66
2022/09/15 11:17:39;;;;;;;11.65;2.00;;;;;;;22.29;45.42;101073.03;5017843;28;20033;-68
2022/09/15 11:20:29;;;;;;;11.55;1.25;;;;;;;22.24;46.46;101069.88;5014748;28;20480;-63
2022/09/15 11:23:13;;;;;;;5.20;1.17;;;;;;;22.38;46.57;101074.97;5022284;28;20021;-64
2022/09/15 11:25:42;;;;;;;5.28;1.02;;;;;;;22.02;47.34;101079.63;5019567;28;20706;-63
2022/09/15 11:28:26;;;;;;;7.30;0.90;;;;;;;22.03;44.70;101081.34;5018203;28;20049;-66
2022/09/15 11:31:10;;;;;;;10.60;1.45;;;;;;;22.20;45.13;101075.50;5017017;28;20465;-66
2022/09/15 11:34:00;;;;;;;3.55;1.23;;;;;;;22.15;45.07;101069.63;5017126;28;20042;-64
2022/09/15 11:36:33;;;;;;;3.85;1.40;;;;;;;22.08;43.60;101069.28;5016497;28;20468;-65
2022/09/15 11:39:03;;;;;;;3.05;0.80;;;;;;;22.13;44.10;101079.66;5017855;28;20018;-64
2022/09/15 11:41:58;;;;;;;5.55;1.20;;;;;;;22.30;45.26;101082.78;5016604;28;20033;-65